Time;durP1;ratioP1;P1;durP2;ratioP2;P2;SDS_P1;SDS_P2;PMS_P1;PMS_P2;Temp;Humidity;BMP_temperature;BMP_pressure;BME280_temperature;BME280_humidity;BME280_pressure;Samples;Min_cycle;Max_cycle;Signal;HPM_P1;HPM_P2
2021/07/29 00:01:15;;;;;;;;;1.75;1.75;;;;;17.75;59.52;101117.06;5022838;28;45423;-81
2021/07/29 00:03:41;;;;;;;;;2.00;1.50;;;;;17.72;59.97;101110.22;5023850;28;46049;-81
2021/07/29 00:06:07;;;;;;;;;5.00;2.50;;;;;17.70;60.25;101109.59;5024051;28;51243;-81
2021/07/29 00:08:32;;;;;;;;;2.00;2.00;;;;;17.70;59.40;101108.78;5027149;28;45415;-81
2021/07/29 00:10:57;;;;;;;;;2.75;2.75;;;;;17.67;59.70;101118.00;5007352;28;45752;-81
2021/07/29 00:13:23;;;;;;;;;3.50;2.75;;;;;17.64;60.24;101115.69;5022415;28;46520;-81
2021/07/29 00:15:48;;;;;;;;;3.25;3.25;;;;;17.59;60.64;101110.09;5019970;28;50435;-80
2021/07/29 00:20:41;;;;;;;;;3.75;1.50;;;;;17.54;60.00;101105.28;5024742;28;45725;-81
2021/07/29 00:23:07;;;;;;;;;2.75;2.75;;;;;17.54;60.75;101115.16;5026035;28;46581;-81
2021/07/29 00:25:33;;;;;;;;;1.50;1.50;;;;;17.52;60.49;101117.19;5022796;28;45808;-81
2021/07/29 00:27:59;;;;;;;;;1.75;1.00;;;;;17.50;60.52;101119.22;5025179;28;45533;-81
2021/07/29 00:30:26;;;;;;;;;2.50;2.50;;;;;17.49;61.37;101117.56;5021087;28;45621;-81
2021/07/29 00:32:53;;;;;;;;;3.00;3.00;;;;;17.48;61.21;101110.53;5023337;28;46582;-81
2021/07/29 00:35:18;;;;;;;;;2.00;2.00;;;;;17.47;61.39;101109.72;5027986;28;45519;-81
2021/07/29 00:37:49;;;;;;;;;3.00;2.00;;;;;17.45;61.90;101101.06;5023077;28;45438;-81
2021/07/29 00:40:19;;;;;;;;;2.75;2.75;;;;;17.45;61.21;101108.25;5023948;28;45594;-81
2021/07/29 00:42:44;;;;;;;;;5.50;2.25;;;;;17.45;61.77;101110.91;5021287;28;46513;-80
2021/07/29 00:45:10;;;;;;;;;2.00;2.00;;;;;17.43;61.27;101113.75;5022613;28;45521;-81
2021/07/29 00:47:40;;;;;;;;;5.50;2.00;;;;;17.40;61.92;101098.13;5025145;28;45828;-81
2021/07/29 00:50:06;;;;;;;;;3.00;3.00;;;;;17.37;61.50;101101.97;5025597;28;45652;-82
2021/07/29 00:52:31;;;;;;;;;2.00;2.00;;;;;17.35;61.86;101104.00;5021635;28;47006;-81
2021/07/29 00:54:57;;;;;;;;;2.50;2.50;;;;;17.34;62.03;101098.88;5022156;28;45734;-81
2021/07/29 00:57:23;;;;;;;;;3.50;3.00;;;;;17.32;61.98;101100.88;5025526;28;45561;-81
2021/07/29 00:59:48;;;;;;;;;5.75;3.50;;;;;17.31;61.89;101097.41;5022830;28;45520;-81
2021/07/29 01:02:14;;;;;;;;;2.75;2.75;;;;;17.31;62.24;101093.88;5009327;28;47395;-81
2021/07/29 01:04:40;;;;;;;;;3.00;3.00;;;;;17.30;62.34;101092.22;5007511;28;46004;-81
2021/07/29 01:07:05;;;;;;;;;3.00;2.00;;;;;17.27;62.12;101098.75;5024651;28;45546;-82
2021/07/29 01:09:31;;;;;;;;;3.75;3.00;;;;;17.24;62.23;101103.66;5023597;28;45855;-80
2021/07/29 01:11:56;;;;;;;;;4.00;3.00;;;;;17.23;62.84;101096.66;5005858;28;45793;-79
2021/07/29 01:14:22;;;;;;;;;3.00;2.00;;;;;17.22;62.92;101101.16;5028371;28;45514;-81
2021/07/29 01:16:47;;;;;;;;;3.75;2.00;;;;;17.22;63.04;101098.50;5020689;28;45574;-81
2021/07/29 01:19:13;;;;;;;;;4.00;4.00;;;;;17.24;62.70;101109.00;5024990;28;45604;-81
2021/07/29 01:21:39;;;;;;;;;2.75;2.75;;;;;17.23;63.11;101110.00;5022075;28;46163;-81
2021/07/29 01:24:05;;;;;;;;;2.50;2.50;;;;;17.22;63.27;101117.19;5024970;28;45590;-81
2021/07/29 01:26:31;;;;;;;;;4.00;1.75;;;;;17.22;62.83;101108.34;5025013;28;45727;-80
2021/07/29 01:28:59;;;;;;;;;3.75;3.75;;;;;17.19;63.28;101109.56;5019568;28;45471;-81
2021/07/29 01:31:26;;;;;;;;;2.75;2.25;;;;;17.18;63.01;101116.75;5017452;28;46951;-80
2021/07/29 01:33:52;;;;;;;;;3.25;3.00;;;;;17.19;63.18;101112.22;5022522;28;45592;-81
2021/07/29 01:36:17;;;;;;;;;3.00;3.00;;;;;17.16;63.21;101108.06;5004128;28;45756;-81
2021/07/29 01:38:43;;;;;;;;;4.00;4.00;;;;;17.15;63.61;101113.59;5021815;28;45535;-81
2021/07/29 01:41:08;;;;;;;;;3.00;3.00;;;;;17.13;63.82;101107.59;5025957;28;46406;-81
2021/07/29 01:43:33;;;;;;;;;4.00;3.00;;;;;17.10;63.56;101115.97;5021005;28;45586;-81
2021/07/29 01:45:59;;;;;;;;;5.00;3.00;;;;;17.06;63.54;101114.69;5024574;28;45617;-81
2021/07/29 01:48:26;;;;;;;;;3.00;2.00;;;;;17.02;64.21;101121.41;5023029;28;45521;-81
2021/07/29 01:50:53;;;;;;;;;3.25;2.00;;;;;17.00;64.13;101116.25;5022103;28;45663;-82
2021/07/29 01:53:19;;;;;;;;;3.25;2.25;;;;;17.00;64.29;101120.75;5027155;28;45440;-81
2021/07/29 01:55:45;;;;;;;;;4.00;3.00;;;;;16.96;64.38;101122.94;5021169;28;45562;-81
2021/07/29 01:58:11;;;;;;;;;2.50;2.00;;;;;16.93;64.17;101121.47;5022832;28;45559;-80
2021/07/29 02:00:40;;;;;;;;;5.25;3.75;;;;;16.92;63.94;101122.50;5006264;28;46803;-80
2021/07/29 02:03:06;;;;;;;;;0.75;0.75;;;;;16.90;64.55;101123.69;5023466;28;45553;-81
2021/07/29 02:05:32;;;;;;;;;4.50;3.00;;;;;16.85;64.78;101118.88;5027627;28;45802;-80
2021/07/29 02:07:59;;;;;;;;;5.00;3.00;;;;;16.87;64.71;101124.88;5024891;28;45708;-81
2021/07/29 02:10:24;;;;;;;;;2.25;2.00;;;;;16.89;64.90;101124.69;5023636;28;46750;-81
2021/07/29 02:12:51;;;;;;;;;3.50;3.50;;;;;16.89;64.96;101127.34;5026962;28;45521;-81
2021/07/29 02:15:17;;;;;;;;;3.50;2.50;;;;;16.88;64.96;101123.03;5024687;28;45445;-80
2021/07/29 02:17:42;;;;;;;;;4.00;3.50;;;;;16.87;65.22;101124.06;5025900;28;45637;-80
2021/07/29 02:20:08;;;;;;;;;3.00;2.75;;;;;16.86;64.95;101122.38;5029756;28;45498;-81
2021/07/29 02:22:34;;;;;;;;;3.00;2.50;;;;;16.83;65.02;101123.56;5006644;28;45598;-80
2021/07/29 02:25:00;;;;;;;;;3.50;3.00;;;;;16.80;65.30;101117.78;5024710;28;51075;-81
2021/07/29 02:27:25;;;;;;;;;3.25;3.25;;;;;16.77;65.52;101122.44;5023803;28;45759;-81
2021/07/29 02:29:52;;;;;;;;;5.00;3.50;;;;;16.75;65.69;101126.28;5024080;28;45834;-81
2021/07/29 02:32:17;;;;;;;;;3.50;3.00;;;;;16.73;65.34;101120.31;5019414;28;45575;-80
2021/07/29 02:34:42;;;;;;;;;3.00;3.00;;;;;16.73;65.95;101125.66;5024078;28;46305;-80
2021/07/29 02:37:07;;;;;;;;;4.00;4.00;;;;;16.71;65.66;101125.00;5023281;28;45771;-80
2021/07/29 02:39:33;;;;;;;;;3.50;2.75;;;;;16.69;66.04;101122.53;5007102;28;46315;-81
2021/07/29 02:41:59;;;;;;;;;3.75;3.00;;;;;16.68;65.83;101125.34;5027420;28;54136;-82
2021/07/29 02:44:24;;;;;;;;;5.00;3.00;;;;;16.66;66.13;101132.69;5030234;28;45918;-82
2021/07/29 02:46:49;;;;;;;;;3.75;3.50;;;;;16.66;66.28;101130.03;5023411;28;45719;-81
2021/07/29 02:49:15;;;;;;;;;3.50;3.00;;;;;16.64;66.41;101135.56;5025058;28;45568;-81
2021/07/29 02:51:40;;;;;;;;;2.50;2.00;;;;;16.63;66.15;101138.41;5027615;28;45517;-81
2021/07/29 02:54:06;;;;;;;;;3.50;3.25;;;;;16.62;66.61;101136.75;5027941;28;45750;-81
2021/07/29 02:56:31;;;;;;;;;4.00;4.00;;;;;16.61;66.67;101137.75;5027317;28;45593;-81
2021/07/29 02:58:56;;;;;;;;;4.25;2.25;;;;;16.59;66.40;101134.44;5029342;28;45480;-81
2021/07/29 03:01:21;;;;;;;;;3.50;3.00;;;;;16.54;66.46;101146.50;5018005;28;45778;-80
2021/07/29 03:03:47;;;;;;;;;2.00;2.00;;;;;16.51;66.72;101149.50;5027136;28;52214;-81
2021/07/29 03:06:12;;;;;;;;;5.00;2.25;;;;;16.51;66.74;101146.00;5024105;28;46647;-82
2021/07/29 03:08:38;;;;;;;;;3.50;3.00;;;;;16.47;67.20;101144.72;5009931;28;47520;-81
2021/07/29 03:11:03;;;;;;;;;4.75;3.00;;;;;16.45;67.12;101152.88;5026752;28;45664;-81
2021/07/29 03:13:29;;;;;;;;;6.00;4.00;;;;;16.44;66.81;101151.19;5022633;28;45510;-81
2021/07/29 03:15:54;;;;;;;;;3.00;3.00;;;;;16.43;66.84;101149.56;4988190;28;46497;-81
2021/07/29 03:18:20;;;;;;;;;4.50;3.25;;;;;16.41;67.06;101151.56;5026696;28;46489;-81
2021/07/29 03:20:45;;;;;;;;;2.00;2.00;;;;;16.38;67.53;101149.25;5027132;28;45665;-81
2021/07/29 03:23:11;;;;;;;;;5.00;2.50;;;;;16.37;67.51;101144.09;5012419;28;45823;-81
2021/07/29 03:25:37;;;;;;;;;3.50;3.00;;;;;16.34;67.43;101147.94;5023399;28;45396;-80
2021/07/29 03:28:03;;;;;;;;;6.00;3.00;;;;;16.31;67.78;101148.31;5022158;28;45526;-81
2021/07/29 03:30:28;;;;;;;;;2.00;2.00;;;;;16.30;67.79;101152.00;5019854;28;45563;-81
2021/07/29 03:32:54;;;;;;;;;5.50;3.00;;;;;16.27;67.88;101145.19;5026884;28;46032;-81
2021/07/29 03:35:19;;;;;;;;;3.50;3.25;;;;;16.25;67.94;101144.50;5028149;28;45439;-81
2021/07/29 03:37:45;;;;;;;;;4.75;3.50;;;;;16.24;68.03;101148.16;5023167;28;45604;-81
2021/07/29 03:40:10;;;;;;;;;3.00;3.00;;;;;16.22;67.87;101149.34;5022932;28;45519;-81
2021/07/29 03:42:36;;;;;;;;;6.75;3.50;;;;;16.20;68.33;101148.72;5008604;28;45516;-82
2021/07/29 03:45:02;;;;;;;;;4.00;3.00;;;;;16.17;68.18;101152.56;5024366;28;45492;-82
2021/07/29 03:47:28;;;;;;;;;3.25;3.00;;;;;16.16;68.32;101152.75;5026333;28;45573;-81
2021/07/29 03:49:53;;;;;;;;;3.00;2.50;;;;;16.10;68.21;101152.44;5007245;28;45626;-81
2021/07/29 03:52:19;;;;;;;;;5.00;3.75;;;;;16.09;68.73;101152.59;5023302;28;45442;-81
2021/07/29 03:54:45;;;;;;;;;4.50;2.00;;;;;16.08;68.89;101162.44;5004599;28;45731;-81
2021/07/29 03:57:10;;;;;;;;;4.00;3.00;;;;;16.07;69.07;101163.47;5024665;28;46067;-81
2021/07/29 03:59:36;;;;;;;;;5.00;3.00;;;;;16.07;68.68;101167.94;5026377;28;45459;-83
2021/07/29 04:02:09;;;;;;;;;3.50;3.50;;;;;16.05;69.00;101162.81;5027065;28;45452;-84
2021/07/29 04:04:36;;;;;;;;;3.00;3.00;;;;;16.05;69.21;101161.97;5004468;28;45924;-82
2021/07/29 04:07:02;;;;;;;;;5.75;2.75;;;;;16.05;69.46;101161.97;5022388;28;46352;-82
2021/07/29 04:09:28;;;;;;;;;3.00;3.00;;;;;16.05;69.39;101162.81;5010098;28;45864;-81
2021/07/29 04:11:53;;;;;;;;;3.75;3.25;;;;;16.06;69.53;101164.44;5024448;28;45755;-82
2021/07/29 04:14:18;;;;;;;;;4.00;2.25;;;;;16.05;69.16;101162.81;5015874;28;45349;-83
2021/07/29 04:16:43;;;;;;;;;5.00;2.00;;;;;16.06;69.68;101172.44;5004435;28;48842;-83
2021/07/29 04:19:09;;;;;;;;;6.00;5.00;;;;;16.05;69.72;101173.47;5023562;28;45557;-82
2021/07/29 04:21:34;;;;;;;;;3.25;2.50;;;;;16.05;69.25;101167.31;5021477;28;45626;-82
2021/07/29 04:23:59;;;;;;;;;3.25;2.75;;;;;16.06;69.67;101169.78;5022657;28;45434;-81
2021/07/29 04:26:25;;;;;;;;;2.75;2.75;;;;;16.07;69.86;101167.94;5008677;28;48174;-83
2021/07/29 04:28:50;;;;;;;;;2.00;2.00;;;;;16.10;69.89;101171.09;5022079;28;45880;-82
2021/07/29 04:31:15;;;;;;;;;5.00;3.75;;;;;16.13;69.63;101169.91;5022500;28;45473;-81
2021/07/29 04:33:41;;;;;;;;;4.00;3.00;;;;;16.15;70.01;101175.91;5003623;28;45533;-82
2021/07/29 04:36:06;;;;;;;;;4.75;3.00;;;;;16.14;69.67;101174.22;5026159;28;45725;-83
2021/07/29 04:38:33;;;;;;;;;3.75;3.00;;;;;16.13;69.67;101168.09;5026672;28;45517;-82
2021/07/29 04:41:07;;;;;;;;;4.25;2.50;;;;;16.10;69.71;101165.78;5025671;28;45583;-83
2021/07/29 04:43:33;;;;;;;;;7.00;4.00;;;;;16.12;69.85;101177.09;5023264;28;46686;-82
2021/07/29 04:46:02;;;;;;;;;5.00;3.00;;;;;16.16;70.34;101174.91;5024162;28;46479;-83
2021/07/29 04:48:29;;;;;;;;;4.00;4.00;;;;;16.16;69.98;101171.41;5023416;28;45550;-83
2021/07/29 04:50:59;;;;;;;;;4.00;4.00;;;;;16.20;70.23;101176.22;5026460;28;46237;-83
2021/07/29 04:53:24;;;;;;;;;3.25;3.25;;;;;16.25;69.95;101173.84;5025013;28;45521;-84
2021/07/29 04:55:49;;;;;;;;;6.25;3.75;;;;;16.27;70.02;101173.66;5021930;28;45574;-85
2021/07/29 04:58:15;;;;;;;;;4.50;3.00;;;;;16.30;70.36;101178.66;5022325;28;45585;-82
2021/07/29 05:00:40;;;;;;;;;3.00;3.00;;;;;16.34;69.93;101177.28;5023172;28;45419;-83
2021/07/29 05:03:05;;;;;;;;;5.00;3.75;;;;;16.38;69.82;101175.13;5018296;28;45375;-82
2021/07/29 05:05:31;;;;;;;;;5.00;3.75;;;;;16.40;70.29;101176.59;5024201;28;45510;-81
2021/07/29 05:07:56;;;;;;;;;4.00;4.00;;;;;16.39;70.01;101177.59;5023934;28;46358;-83
2021/07/29 05:10:21;;;;;;;;;7.00;4.25;;;;;16.44;69.67;101177.88;5022463;28;45659;-83
2021/07/29 05:12:47;;;;;;;;;4.00;3.25;;;;;16.49;69.78;101180.03;5021224;28;45601;-82
2021/07/29 05:15:12;;;;;;;;;5.00;3.00;;;;;16.53;69.82;101182.16;5005302;28;45729;-82
2021/07/29 05:17:37;;;;;;;;;3.00;2.00;;;;;16.60;69.52;101181.47;5016009;28;45508;-81
2021/07/29 05:20:03;;;;;;;;;5.00;4.00;;;;;16.66;69.88;101181.56;5022654;28;45679;-84
2021/07/29 05:22:28;;;;;;;;;5.00;3.25;;;;;16.72;69.29;101185.38;5010127;28;49531;-83
2021/07/29 05:24:54;;;;;;;;;6.00;5.00;;;;;16.75;69.57;101185.84;5021249;28;46506;-82
2021/07/29 05:27:19;;;;;;;;;4.00;3.75;;;;;16.80;69.13;101187.19;5022224;28;45476;-78
2021/07/29 05:29:45;;;;;;;;;4.00;3.00;;;;;16.85;69.21;101184.81;5016144;28;45889;-80
2021/07/29 05:32:10;;;;;;;;;9.00;3.50;;;;;16.91;68.48;101178.72;5024892;28;45706;-83
2021/07/29 05:34:35;;;;;;;;;4.50;4.00;;;;;16.96;68.77;101187.03;5019018;28;46786;-82
2021/07/29 05:37:01;;;;;;;;;4.75;3.75;;;;;17.03;68.72;101190.63;5016065;28;46082;-82
2021/07/29 05:39:26;;;;;;;;;4.00;3.75;;;;;17.13;68.76;101195.72;5025213;28;45644;-82
2021/07/29 05:41:52;;;;;;;;;5.75;3.75;;;;;17.13;67.95;101191.22;5022240;28;45546;-80
2021/07/29 05:44:17;;;;;;;;;6.50;4.50;;;;;17.17;67.95;101189.84;5028876;28;46106;-78
2021/07/29 05:46:43;;;;;;;;;5.75;3.00;;;;;17.20;68.83;101194.00;5027054;28;45667;-81
2021/07/29 05:49:08;;;;;;;;;4.00;3.50;;;;;17.29;67.84;101197.44;5022285;28;45686;-79
2021/07/29 05:51:34;;;;;;;;;4.00;4.00;;;;;17.33;67.96;101198.72;5023300;28;52033;-80
2021/07/29 05:53:59;;;;;;;;;5.00;4.00;;;;;17.35;67.93;101202.84;5025602;28;45568;-80
2021/07/29 05:56:24;;;;;;;;;8.50;3.00;;;;;17.36;67.63;101196.53;5030614;28;46548;-80
2021/07/29 05:58:49;;;;;;;;;7.25;4.00;;;;;17.39;67.69;101189.97;5026220;28;45430;-79
2021/07/29 06:01:15;;;;;;;;;5.50;4.50;;;;;17.45;68.08;101191.06;5025300;28;45763;-79
2021/07/29 06:03:40;;;;;;;;;5.75;3.75;;;;;17.52;67.45;101192.00;5024401;28;45587;-77
2021/07/29 06:06:06;;;;;;;;;3.75;3.75;;;;;17.57;67.31;101187.75;5024549;28;45623;-79
2021/07/29 06:08:31;;;;;;;;;6.00;5.00;;;;;17.63;67.03;101189.72;5028697;28;45619;-77
2021/07/29 06:10:56;;;;;;;;;4.75;4.25;;;;;17.75;67.24;101187.38;5026228;28;45522;-78
2021/07/29 06:13:22;;;;;;;;;4.00;3.75;;;;;17.81;66.69;101186.69;5026036;28;52414;-79
2021/07/29 06:15:47;;;;;;;;;3.00;3.00;;;;;17.89;66.92;101187.59;5023593;28;45506;-79
2021/07/29 06:18:13;;;;;;;;;4.25;3.75;;;;;17.96;66.52;101200.03;5009251;28;45608;-78
2021/07/29 06:20:40;;;;;;;;;4.50;2.25;;;;;18.05;66.54;101198.06;5026669;28;45604;-79
2021/07/29 06:23:05;;;;;;;;;4.00;3.00;;;;;18.14;65.94;101199.63;5029765;28;45692;-79
2021/07/29 06:25:30;;;;;;;;;7.25;4.00;;;;;18.19;65.37;101202.56;5025019;28;45470;-79
2021/07/29 06:27:56;;;;;;;;;2.25;2.25;;;;;18.20;65.69;101206.06;5021280;28;45862;-80
2021/07/29 06:30:21;;;;;;;;;5.00;3.00;;;;;18.27;65.82;101210.50;5023479;28;45477;-80
2021/07/29 06:32:47;;;;;;;;;5.00;4.75;;;;;18.37;65.28;101206.66;5022210;28;46026;-80
2021/07/29 06:35:12;;;;;;;;;4.00;4.00;;;;;18.47;65.19;101212.53;5029185;28;45521;-80
2021/07/29 06:37:38;;;;;;;;;4.25;3.00;;;;;18.59;65.78;101219.06;5021021;28;45545;-81
2021/07/29 06:40:04;;;;;;;;;4.25;4.00;;;;;18.73;65.24;101224.56;5013362;28;45612;-80
2021/07/29 06:42:30;;;;;;;;;3.25;3.25;;;;;18.83;64.63;101222.41;5021702;28;46225;-81
2021/07/29 06:44:56;;;;;;;;;2.75;2.50;;;;;18.84;64.57;101224.91;5027182;28;45668;-80
2021/07/29 06:47:21;;;;;;;;;6.00;4.75;;;;;18.83;63.98;101222.41;5023990;28;45606;-80
2021/07/29 06:49:48;;;;;;;;;3.75;3.75;;;;;18.86;64.31;101222.03;5027422;28;45952;-80
2021/07/29 06:52:14;;;;;;;;;4.25;2.25;;;;;18.85;64.05;101220.38;5021951;28;45528;-81
2021/07/29 06:54:40;;;;;;;;;4.00;3.00;;;;;18.90;64.21;101221.44;5023377;28;45496;-81
2021/07/29 06:57:07;;;;;;;;;4.75;3.75;;;;;18.98;63.73;101220.50;5023810;28;45551;-80
2021/07/29 06:59:33;;;;;;;;;3.00;3.00;;;;;19.06;63.86;101222.19;5025202;28;45721;-81
2021/07/29 07:01:59;;;;;;;;;6.25;3.75;;;;;19.18;63.90;101236.72;5021530;28;45697;-81
2021/07/29 07:04:24;;;;;;;;;5.75;3.25;;;;;19.27;63.18;101232.06;5003716;28;45766;-81
2021/07/29 07:06:49;;;;;;;;;7.00;3.75;;;;;19.38;63.40;101231.50;5020558;28;45387;-79
2021/07/29 07:09:15;;;;;;;;;5.00;3.25;;;;;19.48;62.75;101232.00;5023169;28;45661;-82
2021/07/29 07:11:40;;;;;;;;;3.00;3.00;;;;;19.57;62.00;101240.72;5025053;28;45518;-82
2021/07/29 07:14:06;;;;;;;;;4.00;3.00;;;;;19.67;61.76;101241.22;5026112;28;45709;-82
2021/07/29 07:16:33;;;;;;;;;3.25;3.25;;;;;19.82;61.86;101249.16;5021835;28;45686;-83
2021/07/29 07:18:59;;;;;;;;;3.00;3.00;;;;;19.97;61.59;101249.84;5022027;28;45580;-83
2021/07/29 07:21:24;;;;;;;;;7.50;4.00;;;;;20.13;61.95;101250.56;5024111;28;45888;-83
2021/07/29 07:23:50;;;;;;;;;2.75;2.75;;;;;20.29;61.11;101252.06;5006243;28;45550;-82
2021/07/29 07:26:18;;;;;;;;;4.50;4.00;;;;;20.41;61.16;101256.63;5026479;28;45631;-82
2021/07/29 07:28:44;;;;;;;;;5.00;3.25;;;;;20.58;60.99;101259.81;5027555;28;45653;-84
2021/07/29 07:31:10;;;;;;;;;6.00;3.00;;;;;20.65;60.17;101253.63;5025449;28;50646;-83
2021/07/29 07:33:36;;;;;;;;;5.00;4.00;;;;;20.66;58.36;101253.44;5008012;28;45391;-80
2021/07/29 07:36:01;;;;;;;;;3.00;3.00;;;;;20.68;58.39;101253.25;5008308;28;45435;-81
2021/07/29 07:38:26;;;;;;;;;2.25;2.25;;;;;20.55;57.23;101257.56;5028240;28;45497;-81
2021/07/29 07:40:52;;;;;;;;;3.25;3.00;;;;;20.59;59.40;101252.59;5019800;28;46311;-81
2021/07/29 07:43:17;;;;;;;;;5.00;3.00;;;;;20.91;59.05;101250.16;5022917;28;45643;-80
2021/07/29 07:45:43;;;;;;;;;3.50;2.50;;;;;22.60;57.38;101241.34;5024181;28;45458;-80
2021/07/29 07:48:09;;;;;;;;;5.75;4.00;;;;;26.09;54.50;101240.94;5023809;28;45829;-80
2021/07/29 07:50:38;;;;;;;;;3.50;2.00;;;;;28.62;47.42;101239.88;5027896;28;46086;-82
2021/07/29 07:53:05;;;;;;;;;2.75;2.75;;;;;29.76;42.93;101241.25;5008565;28;45759;-81
2021/07/29 07:55:30;;;;;;;;;2.25;2.00;;;;;29.82;43.63;101244.81;5017291;28;45918;-81
2021/07/29 07:57:56;;;;;;;;;3.00;3.00;;;;;32.19;40.17;101241.75;5004502;28;45469;-82
2021/07/29 08:00:21;;;;;;;;;2.50;2.25;;;;;34.55;37.58;101242.06;5006748;28;47077;-82
2021/07/29 08:02:46;;;;;;;;;3.25;3.25;;;;;36.24;36.09;101236.16;5008582;28;45644;-83
2021/07/29 08:05:12;;;;;;;;;5.75;4.00;;;;;37.49;31.85;101248.13;5027906;28;45578;-82
2021/07/29 08:07:37;;;;;;;;;2.75;2.75;;;;;38.66;31.50;101252.00;5023712;28;45600;-82
2021/07/29 08:10:03;;;;;;;;;2.75;2.25;;;;;39.97;29.40;101249.56;5006635;28;47359;-83
2021/07/29 08:12:28;;;;;;;;;3.50;2.75;;;;;40.25;27.46;101240.72;5005983;28;45539;-82
2021/07/29 08:14:53;;;;;;;;;3.75;3.50;;;;;40.59;29.40;101249.88;5019332;28;46656;-83
2021/07/29 08:17:19;;;;;;;;;2.00;2.00;;;;;41.61;26.49;101252.97;5025301;28;45458;-83
2021/07/29 08:19:44;;;;;;;;;2.25;1.25;;;;;41.49;25.87;101256.50;5007726;28;46817;-82
2021/07/29 08:22:09;;;;;;;;;1.00;1.00;;;;;41.57;25.25;101240.94;5021362;28;45520;-83
2021/07/29 08:24:35;;;;;;;;;3.00;2.25;;;;;42.19;24.69;101242.44;5025745;28;45646;-83
2021/07/29 08:27:01;;;;;;;;;4.00;1.25;;;;;42.48;24.89;101251.59;5019455;28;45574;-83
2021/07/29 08:29:27;;;;;;;;;2.00;1.25;;;;;42.43;25.48;101249.88;5010101;28;47489;-83
2021/07/29 08:31:52;;;;;;;;;6.25;6.25;;;;;43.11;22.37;101257.25;5024127;28;45877;-83
2021/07/29 08:34:17;;;;;;;;;2.75;2.75;;;;;42.08;23.56;101255.19;5022913;28;51303;-83
2021/07/29 08:36:43;;;;;;;;;2.00;1.50;;;;;39.73;24.82;101238.31;5021575;28;45573;-83
2021/07/29 08:39:08;;;;;;;;;3.00;1.00;;;;;37.26;27.11;101244.59;5005592;28;46090;-84
2021/07/29 08:41:34;;;;;;;;;1.00;1.00;;;;;36.08;27.79;101242.00;5027213;28;45547;-84
2021/07/29 08:44:00;;;;;;;;;1.00;1.00;;;;;34.44;29.38;101242.22;5026352;28;45665;-84
2021/07/29 08:46:25;;;;;;;;;1.00;1.00;;;;;33.17;29.79;101242.69;5025533;28;45814;-85
2021/07/29 08:48:51;;;;;;;;;1.00;0.00;;;;;34.09;31.01;101240.81;5002204;28;47995;-82
2021/07/29 08:51:23;;;;;;;;;1.75;1.75;;;;;36.70;29.46;101232.31;5016441;28;45552;-83
2021/07/29 08:53:50;;;;;;;;;1.00;0.25;;;;;36.56;24.98;101244.19;5026232;28;45583;-84
2021/07/29 08:56:17;;;;;;;;;7.00;7.00;;;;;35.94;27.25;101232.94;5011560;28;45556;-83
2021/07/29 08:58:43;;;;;;;;;5.00;4.00;;;;;34.74;28.31;101242.06;5022910;28;46220;-82
2021/07/29 09:01:11;;;;;;;;;3.00;2.00;;;;;33.17;29.19;101245.41;5025169;28;45976;-81
2021/07/29 09:03:37;;;;;;;;;3.50;1.00;;;;;35.02;29.93;101227.28;5025310;28;45811;-82
2021/07/29 09:06:05;;;;;;;;;1.50;1.50;;;;;37.68;27.47;101233.25;5025027;28;45524;-81
2021/07/29 09:08:50;;;;;;;;;1.00;1.00;;;;;39.92;24.11;101230.41;5025591;28;46359;-82
2021/07/29 09:11:31;;;;;;;;;1.25;1.00;;;;;41.42;24.43;101234.94;5009039;28;45494;-82
2021/07/29 09:14:21;;;;;;;;;2.50;1.00;;;;;42.93;22.35;101229.03;5022021;28;46685;-82
2021/07/29 09:17:01;;;;;;;;;2.00;2.00;;;;;42.29;21.61;101239.16;5025402;28;45929;-82
2021/07/29 09:19:30;;;;;;;;;1.00;1.00;;;;;40.77;23.02;101233.91;5024025;28;46321;-82
2021/07/29 09:22:13;;;;;;;;;1.00;1.00;;;;;38.37;23.63;101232.53;5022429;28;45846;-82
2021/07/29 09:24:57;;;;;;;;;1.75;1.75;;;;;35.96;25.53;101230.69;5021765;28;45962;-83
2021/07/29 09:27:37;;;;;;;;;0.75;0.75;;;;;34.04;28.06;101232.63;5006351;28;45439;-83
2021/07/29 09:30:13;;;;;;;;;2.25;2.00;;;;;33.56;29.47;101225.31;5021104;28;45471;-79
2021/07/29 09:33:05;;;;;;;;;2.00;1.00;;;;;36.06;27.27;101215.91;5019593;28;45463;-81
2021/07/29 09:35:39;;;;;;;;;2.00;2.00;;;;;37.27;25.78;101224.22;5011082;28;45486;-83
2021/07/29 09:38:24;;;;;;;;;1.50;0.75;;;;;36.05;26.69;101217.00;5020971;28;45569;-83
2021/07/29 09:40:50;;;;;;;;;1.50;0.50;;;;;34.04;27.28;101222.47;5021310;28;45569;-81
2021/07/29 09:43:24;;;;;;;;;0.00;0.00;;;;;32.57;27.92;101225.69;5020137;28;45704;-82
2021/07/29 09:45:52;;;;;;;;;2.50;0.00;;;;;31.37;30.05;101220.19;5021819;28;45436;-82
2021/07/29 09:48:18;;;;;;;;;2.00;1.00;;;;;30.55;31.25;101224.88;5017906;28;52000;-82
2021/07/29 09:50:45;;;;;;;;;1.75;1.00;;;;;29.78;32.51;101236.34;5023064;28;46413;-83
2021/07/29 09:53:11;;;;;;;;;4.00;1.00;;;;;29.14;33.34;101233.78;5004151;28;46014;-82
2021/07/29 09:55:36;;;;;;;;;4.25;2.00;;;;;28.79;33.88;101228.88;5019435;28;45565;-82
2021/07/29 09:58:03;;;;;;;;;1.50;1.50;;;;;28.89;34.97;101224.31;5018171;28;45602;-86
2021/07/29 10:00:29;;;;;;;;;1.75;1.00;;;;;29.44;34.03;101219.53;5022027;28;45527;-84
2021/07/29 10:02:55;;;;;;;;;1.75;1.75;;;;;30.07;34.41;101210.56;5021024;28;45750;-85
2021/07/29 10:05:26;;;;;;;;;2.00;1.50;;;;;30.72;33.90;101210.97;5024122;28;45832;-85
2021/07/29 10:07:55;;;;;;;;;1.75;1.75;;;;;31.07;31.36;101212.88;5019965;28;51625;-84
2021/07/29 10:10:23;;;;;;;;;1.25;1.25;;;;;30.78;29.12;101204.41;5016799;28;45587;-83
2021/07/29 10:12:49;;;;;;;;;1.25;1.25;;;;;30.15;33.20;101210.06;5020003;28;46128;-86
2021/07/29 10:15:37;;;;;;;;;2.00;1.00;;;;;29.89;33.19;101214.59;5024410;28;45555;-82
2021/07/29 10:18:03;;;;;;;;;2.50;1.00;;;;;29.97;33.94;101200.44;5019841;28;45501;-81
2021/07/29 10:20:32;;;;;;;;;0.75;0.50;;;;;29.84;33.24;101212.66;5002641;28;47593;-82
2021/07/29 10:23:13;;;;;;;;;0.25;0.25;;;;;29.89;33.81;101198.25;5023082;28;45709;-83
2021/07/29 10:26:03;;;;;;;;;1.50;1.50;;;;;30.14;33.64;101201.06;5019708;28;45849;-82
2021/07/29 10:28:35;;;;;;;;;0.75;0.00;;;;;30.79;33.22;101195.97;5023761;28;45664;-81
2021/07/29 10:31:01;;;;;;;;;1.00;1.00;;;;;31.25;31.75;101192.38;5021657;28;46408;-81
2021/07/29 10:33:28;;;;;;;;;0.50;0.50;;;;;31.54;31.08;101189.03;5026067;28;45846;-82
2021/07/29 10:35:55;;;;;;;;;0.00;0.00;;;;;31.99;31.20;101189.94;5012238;28;45649;-81
2021/07/29 10:38:38;;;;;;;;;1.00;1.00;;;;;32.56;31.09;101188.47;5025262;28;45557;-80
2021/07/29 10:41:06;;;;;;;;;0.00;0.00;;;;;33.08;30.38;101188.84;5025313;28;46385;-81
2021/07/29 10:43:32;;;;;;;;;2.00;0.00;;;;;33.37;30.28;101186.06;5022337;28;50184;-84
2021/07/29 10:46:01;;;;;;;;;1.75;0.25;;;;;33.68;29.27;101182.97;5018441;28;45782;-84
2021/07/29 10:48:39;;;;;;;;;1.00;1.00;;;;;34.13;28.67;101194.44;5004888;28;45561;-83
2021/07/29 10:51:24;;;;;;;;;1.00;0.00;;;;;34.43;28.57;101180.25;5017931;28;57218;-84
2021/07/29 10:53:52;;;;;;;;;0.75;0.00;;;;;34.41;28.22;101187.94;5023711;28;50041;-84
2021/07/29 10:56:22;;;;;;;;;2.00;1.75;;;;;34.65;28.73;101187.06;5024056;28;45681;-83
2021/07/29 10:58:48;;;;;;;;;1.50;0.25;;;;;34.51;25.49;101180.69;5020095;28;56921;-83
2021/07/29 11:01:15;;;;;;;;;2.00;0.75;;;;;33.59;29.34;101191.84;5020913;28;45851;-83
2021/07/29 11:03:52;;;;;;;;;0.00;0.00;;;;;32.89;28.72;101191.44;5019009;28;46031;-82
2021/07/29 11:06:36;;;;;;;;;1.00;0.00;;;;;32.32;29.91;101194.66;5022226;28;52646;-83
2021/07/29 11:09:14;;;;;;;;;3.00;0.00;;;;;31.66;30.06;101193.06;5019016;28;45527;-83
2021/07/29 11:11:40;;;;;;;;;0.00;0.00;;;;;31.95;30.38;101180.66;5018513;28;46688;-83
2021/07/29 11:14:07;;;;;;;;;1.00;0.75;;;;;31.80;29.90;101176.91;5024031;28;45785;-81
2021/07/29 11:16:33;;;;;;;;;5.75;5.75;;;;;31.43;31.02;101177.31;5020529;28;45773;-81
2021/07/29 11:19:00;;;;;;;;;1.00;1.00;;;;;31.08;30.35;101184.47;5021439;28;46073;-82
2021/07/29 11:21:26;;;;;;;;;1.75;1.00;;;;;30.74;30.34;101178.78;5022929;28;46646;-82
2021/07/29 11:23:52;;;;;;;;;0.75;0.25;;;;;30.53;31.43;101176.03;5022039;28;45478;-81
2021/07/29 11:26:17;;;;;;;;;0.00;0.00;;;;;30.26;31.33;101176.28;5025663;28;45920;-82